Time;durP1;ratioP1;P1;durP2;ratioP2;P2;SDS_P1;SDS_P2;PMS_P1;PMS_P2;Temp;Humidity;BMP_temperature;BMP_pressure;BME280_temperature;BME280_humidity;BME280_pressure;Samples;Min_cycle;Max_cycle;Signal;HPM_P1;HPM_P2
2021/08/16 00:00:44;;;;;;;17.23;12.18;;;;;;;18.61;76.16;96779.41;1745590;81;25793;-83
2021/08/16 00:03:11;;;;;;;15.80;11.68;;;;;;;18.60;76.13;96777.77;1743946;81;25762;-82
2021/08/16 00:05:38;;;;;;;16.17;12.30;;;;;;;18.60;76.20;96788.70;1752119;81;25692;-83
2021/08/16 00:08:09;;;;;;;13.90;12.03;;;;;;;18.57;76.22;96777.77;1745185;81;27456;-83
2021/08/16 00:10:36;;;;;;;13.32;11.88;;;;;;;18.55;76.20;96774.48;1751090;81;25970;-82
2021/08/16 00:13:03;;;;;;;21.97;12.50;;;;;;;18.51;76.24;96768.47;1745976;81;25263;-82
2021/08/16 00:15:30;;;;;;;17.95;12.28;;;;;;;18.49;76.22;96772.02;1747007;81;25712;-83
2021/08/16 00:17:59;;;;;;;18.62;13.25;;;;;;;18.35;76.21;96778.06;1725769;81;26224;-83
2021/08/16 00:20:27;;;;;;;16.85;12.93;;;;;;;18.27;76.41;96772.34;1748366;81;27392;-82
2021/08/16 00:22:53;;;;;;;17.80;12.33;;;;;;;18.24;76.60;96781.08;1742983;81;26435;-82
2021/08/16 00:25:20;;;;;;;18.02;12.65;;;;;;;18.25;76.75;96779.45;1752878;81;25715;-83
2021/08/16 00:27:46;;;;;;;17.10;11.70;;;;;;;18.28;76.75;96785.73;1749279;81;25679;-83
2021/08/16 00:30:14;;;;;;;16.48;11.68;;;;;;;18.27;76.76;96781.36;1738263;81;25777;-83
2021/08/16 00:32:41;;;;;;;17.17;11.63;;;;;;;18.29;76.75;96783.27;1748632;81;27333;-83
2021/08/16 00:35:08;;;;;;;16.37;12.78;;;;;;;18.27;76.69;96778.63;1745101;81;25796;-83
2021/08/16 00:37:34;;;;;;;20.95;11.80;;;;;;;18.28;76.73;96769.34;1740051;81;25291;-83
2021/08/16 00:40:01;;;;;;;14.25;11.90;;;;;;;18.27;76.70;96770.98;1725388;81;25686;-83
2021/08/16 00:42:28;;;;;;;17.73;12.28;;;;;;;18.23;76.73;96780.27;1748454;81;25677;-83
2021/08/16 00:44:54;;;;;;;15.53;11.57;;;;;;;18.23;76.76;96773.44;1753149;81;27583;-83
2021/08/16 00:47:22;;;;;;;17.50;12.28;;;;;;;18.21;76.81;96775.65;1730479;81;25824;-83
2021/08/16 00:49:48;;;;;;;16.37;11.57;;;;;;;18.15;76.79;96765.80;1722701;81;26377;-83
2021/08/16 00:52:15;;;;;;;13.58;12.15;;;;;;;18.03;76.85;96763.91;1728002;81;25749;-83
2021/08/16 00:54:42;;;;;;;20.05;11.90;;;;;;;17.93;76.99;96770.74;1746860;81;25769;-83
2021/08/16 00:57:09;;;;;;;16.00;12.63;;;;;;;17.91;77.27;96770.19;1733080;81;27529;-83
2021/08/16 00:59:35;;;;;;;18.23;12.73;;;;;;;17.91;77.36;96771.55;1743149;81;25762;-83
2021/08/16 01:02:02;;;;;;;15.78;12.03;;;;;;;17.90;77.49;96771.28;1748142;81;25915;-83
2021/08/16 01:04:30;;;;;;;19.12;12.90;;;;;;;17.93;77.57;96758.45;1729753;81;25747;-83
2021/08/16 01:06:57;;;;;;;16.87;12.60;;;;;;;17.96;77.58;96751.09;1712887;83;25707;-83
2021/08/16 01:09:24;;;;;;;19.35;12.43;;;;;;;17.98;77.46;96740.72;1716659;83;27384;-83
2021/08/16 01:11:51;;;;;;;16.30;11.90;;;;;;;17.96;77.38;96742.35;1716546;83;25687;-83
2021/08/16 01:14:19;;;;;;;17.90;12.75;;;;;;;17.85;77.37;96740.72;1704824;83;25291;-83
2021/08/16 01:16:48;;;;;;;15.35;12.07;;;;;;;17.79;77.55;96747.27;1707726;83;25794;-84
2021/08/16 01:19:18;;;;;;;17.80;12.37;;;;;;;17.76;77.77;96746.44;1716635;83;25850;-83
2021/08/16 01:21:45;;;;;;;20.43;11.53;;;;;;;17.76;77.86;96746.98;1716637;83;27538;-84
2021/08/16 01:24:11;;;;;;;16.40;11.53;;;;;;;17.70;77.85;96747.54;1716564;83;25719;-83
2021/08/16 01:26:38;;;;;;;17.98;12.23;;;;;;;17.73;78.00;96741.55;1716755;83;25751;-83
2021/08/16 01:29:18;;;;;;;23.20;12.00;;;;;;;17.77;77.99;96737.70;1716703;82;25703;-83
2021/08/16 01:31:44;;;;;;;17.15;11.28;;;;;;;17.78;77.85;96729.78;1716755;83;25706;-83
2021/08/16 01:34:11;;;;;;;18.55;12.15;;;;;;;17.78;77.72;96724.33;1716641;83;27567;-83
2021/08/16 01:36:40;;;;;;;12.98;11.10;;;;;;;17.75;77.70;96725.69;1716618;83;26254;-83
2021/08/16 01:39:08;;;;;;;17.92;11.48;;;;;;;17.70;77.73;96724.88;1716616;83;25746;-83
2021/08/16 01:41:35;;;;;;;17.77;11.57;;;;;;;17.68;77.80;96729.25;1716690;83;25740;-83
2021/08/16 01:44:02;;;;;;;13.18;11.18;;;;;;;17.68;77.79;96726.52;1716692;83;25779;-83
2021/08/16 01:46:28;;;;;;;16.12;12.07;;;;;;;17.67;77.82;96724.05;1708920;82;27410;-84
2021/08/16 01:48:55;;;;;;;17.30;10.78;;;;;;;17.61;77.75;96728.13;1718145;82;25758;-83
2021/08/16 01:51:22;;;;;;;15.32;11.20;;;;;;;17.61;77.84;96721.31;1718653;82;25758;-83
2021/08/16 01:53:48;;;;;;;13.98;11.08;;;;;;;17.62;77.90;96730.32;1701570;83;26299;-83
2021/08/16 01:56:19;;;;;;;17.15;11.20;;;;;;;17.62;77.91;96731.14;1721760;82;25842;-83
2021/08/16 01:58:46;;;;;;;17.75;11.40;;;;;;;17.61;77.86;96726.77;1700167;83;27383;-83
2021/08/16 02:01:12;;;;;;;19.02;12.20;;;;;;;17.58;77.80;96716.94;1717274;83;26065;-83
2021/08/16 02:03:39;;;;;;;14.40;10.95;;;;;;;17.56;77.81;96713.11;1723233;83;26746;-83
2021/08/16 02:06:06;;;;;;;16.15;10.72;;;;;;;17.53;77.77;96712.28;1723184;83;26377;-83
2021/08/16 02:08:32;;;;;;;13.15;10.93;;;;;;;17.52;77.81;96710.64;1723227;83;25994;-83
2021/08/16 02:10:59;;;;;;;18.05;11.10;;;;;;;17.49;77.81;96709.84;1721674;83;28603;-83
2021/08/16 02:13:25;;;;;;;16.15;11.50;;;;;;;17.51;77.90;96715.83;1742646;81;26070;-83
2021/08/16 02:15:52;;;;;;;14.78;11.10;;;;;;;17.54;77.97;96712.56;1753289;81;25740;-84
2021/08/16 02:18:18;;;;;;;15.93;11.25;;;;;;;17.46;77.74;96710.38;1752409;81;26458;-84
2021/08/16 02:20:45;;;;;;;12.70;10.68;;;;;;;17.38;77.93;96716.93;1738348;81;25813;-84
2021/08/16 02:23:11;;;;;;;13.93;10.50;;;;;;;17.37;78.02;96722.93;1738341;81;26886;-84
2021/08/16 02:25:38;;;;;;;13.25;10.82;;;;;;;17.40;78.09;96720.18;1752701;81;25780;-84
2021/08/16 02:28:05;;;;;;;14.73;10.98;;;;;;;17.39;78.08;96718.00;1744456;81;25697;-84
2021/08/16 02:30:32;;;;;;;15.85;11.00;;;;;;;17.33;77.99;96713.64;1738412;82;25724;-84
2021/08/16 02:32:58;;;;;;;13.58;10.43;;;;;;;17.33;78.11;96710.91;1738311;82;25820;-83
2021/08/16 02:35:25;;;;;;;14.25;10.55;;;;;;;17.33;78.17;96709.55;1738451;82;28442;-83
2021/08/16 02:37:52;;;;;;;15.30;11.63;;;;;;;17.33;78.17;96708.73;1738276;82;25773;-83
2021/08/16 02:40:19;;;;;;;19.27;11.68;;;;;;;17.30;78.21;96707.36;1738334;82;25680;-84
2021/08/16 02:42:45;;;;;;;13.22;11.03;;;;;;;17.30;78.21;96705.98;1738207;82;26967;-84
2021/08/16 02:45:12;;;;;;;12.40;11.03;;;;;;;17.29;78.22;96701.08;1738327;82;26342;-84
2021/08/16 02:47:39;;;;;;;16.27;10.93;;;;;;;17.29;78.29;96695.63;1748823;81;28258;-83
2021/08/16 02:50:07;;;;;;;17.77;11.48;;;;;;;17.24;78.20;96688.00;1737969;81;25911;-83
2021/08/16 02:52:34;;;;;;;14.68;10.55;;;;;;;17.23;78.30;96687.17;1736607;81;25791;-84
2021/08/16 02:55:00;;;;;;;14.03;11.05;;;;;;;17.18;78.24;96682.25;1737573;81;25727;-83
2021/08/16 02:57:27;;;;;;;13.95;11.05;;;;;;;17.14;78.37;96679.27;1738313;82;25676;-84
2021/08/16 02:59:54;;;;;;;12.30;10.32;;;;;;;17.16;78.43;96681.69;1738233;82;27417;-83
2021/08/16 03:02:20;;;;;;;13.22;10.78;;;;;;;17.18;78.42;96683.61;1742367;81;25706;-84
2021/08/16 03:04:48;;;;;;;18.80;12.35;;;;;;;17.16;78.37;96681.69;1722632;82;25690;-83
2021/08/16 03:07:14;;;;;;;16.48;11.80;;;;;;;17.10;78.38;96671.88;1728725;82;25873;-84
2021/08/16 03:09:41;;;;;;;17.02;11.43;;;;;;;17.03;78.53;96674.85;1730076;81;25709;-84
2021/08/16 03:12:08;;;;;;;17.02;11.97;;;;;;;17.00;78.64;96678.69;1746449;82;27382;-84
2021/08/16 03:14:35;;;;;;;16.17;12.05;;;;;;;16.91;78.83;96671.02;1746462;82;26325;-84
2021/08/16 03:17:01;;;;;;;15.75;11.97;;;;;;;16.90;79.04;96666.65;1739691;82;26282;-83
2021/08/16 03:19:28;;;;;;;15.05;11.80;;;;;;;16.91;79.14;96668.28;1716357;82;25786;-84
2021/08/16 03:21:54;;;;;;;18.02;11.85;;;;;;;16.89;79.15;96664.22;1716359;82;25880;-83
2021/08/16 03:24:23;;;;;;;14.00;11.43;;;;;;;16.90;79.29;96667.22;1707408;83;28256;-83
2021/08/16 03:26:50;;;;;;;16.75;11.10;;;;;;;16.90;79.22;96659.05;1707083;82;25725;-83
2021/08/16 03:29:17;;;;;;;18.52;11.63;;;;;;;16.94;79.29;96657.39;1705986;82;25747;-83
2021/08/16 03:31:44;;;;;;;15.70;11.30;;;;;;;16.96;79.21;96665.31;1726021;81;25751;-84
2021/08/16 03:34:11;;;;;;;12.78;11.30;;;;;;;16.90;79.19;96661.19;1686121;83;25688;-84
2021/08/16 03:36:38;;;;;;;19.15;12.03;;;;;;;16.82;79.39;96659.00;1709105;83;27505;-83
2021/08/16 03:39:04;;;;;;;20.25;12.10;;;;;;;16.79;79.64;96650.00;1719180;82;25767;-83
2021/08/16 03:41:31;;;;;;;18.95;11.83;;;;;;;16.71;79.71;96651.89;1712433;83;25828;-84
2021/08/16 03:43:57;;;;;;;19.57;12.43;;;;;;;16.69;79.73;96647.25;1716612;82;25738;-84
2021/08/16 03:46:24;;;;;;;16.32;11.60;;;;;;;16.70;79.84;96644.80;1716787;83;25740;-84
2021/08/16 03:48:50;;;;;;;16.23;11.90;;;;;;;16.71;80.00;96640.99;1716616;83;27451;-84
2021/08/16 03:51:17;;;;;;;20.37;13.25;;;;;;;16.72;80.10;96638.55;1716263;83;25895;-84
2021/08/16 03:53:43;;;;;;;16.25;12.35;;;;;;;16.78;80.14;96643.48;1716294;83;25726;-83
2021/08/16 03:56:11;;;;;;;17.55;11.80;;;;;;;16.84;80.16;96635.57;1740500;82;25782;-83
2021/08/16 03:58:41;;;;;;;19.02;12.10;;;;;;;16.87;80.15;96630.41;1746534;82;25776;-84
2021/08/16 04:01:08;;;;;;;14.45;11.83;;;;;;;16.90;80.10;96626.33;1737148;81;27407;-83
2021/08/16 04:03:35;;;;;;;18.42;13.00;;;;;;;16.92;80.10;96625.49;1696166;83;25732;-84
2021/08/16 04:06:01;;;;;;;14.60;12.23;;;;;;;16.96;80.17;96621.14;1698466;83;25836;-84
2021/08/16 04:08:28;;;;;;;21.90;12.85;;;;;;;16.98;80.14;96621.70;1700267;82;25728;-83
2021/08/16 04:10:55;;;;;;;17.30;12.65;;;;;;;16.97;80.09;96608.33;1715336;82;25754;-83
2021/08/16 04:13:21;;;;;;;19.92;12.37;;;;;;;16.99;80.08;96614.34;1738544;82;27433;-83
2021/08/16 04:15:48;;;;;;;13.93;12.18;;;;;;;17.02;80.03;96609.17;1692391;83;26235;-83
2021/08/16 04:18:14;;;;;;;18.57;12.50;;;;;;;17.03;80.00;96609.42;1715875;83;25764;-83
2021/08/16 04:20:41;;;;;;;17.48;12.03;;;;;;;17.11;79.99;96621.17;1735882;82;25781;-83
2021/08/16 04:23:08;;;;;;;15.98;12.20;;;;;;;17.16;79.91;96617.61;1706040;83;25893;-83
2021/08/16 04:25:35;;;;;;;14.45;11.83;;;;;;;17.18;79.90;96611.34;1727264;82;27393;-83
2021/08/16 04:28:01;;;;;;;22.10;12.68;;;;;;;17.20;79.92;96616.80;1729642;82;25303;-83
2021/08/16 04:30:28;;;;;;;12.58;11.28;;;;;;;17.23;79.88;96619.53;1712761;83;25750;-83
2021/08/16 04:32:55;;;;;;;15.43;12.50;;;;;;;17.24;79.89;96611.63;1716689;83;25744;-83
2021/08/16 04:35:22;;;;;;;16.07;11.50;;;;;;;17.22;79.84;96609.17;1716605;83;25699;-83
2021/08/16 04:37:48;;;;;;;18.85;12.80;;;;;;;17.24;79.94;96603.45;1716760;82;27370;-83
2021/08/16 04:40:16;;;;;;;19.95;13.78;;;;;;;17.27;80.02;96598.78;1716498;83;25779;-83
2021/08/16 04:42:42;;;;;;;18.02;13.28;;;;;;;17.31;80.06;96605.34;1708931;82;25871;-83
2021/08/16 04:45:11;;;;;;;15.00;12.43;;;;;;;17.36;80.10;96592.26;1700371;82;25848;-83
2021/08/16 04:47:38;;;;;;;20.12;13.00;;;;;;;17.37;80.11;96590.62;1700306;82;25689;-83
2021/08/16 04:50:05;;;;;;;21.02;12.78;;;;;;;17.42;80.19;96580.23;1700292;82;27648;-83
2021/08/16 04:52:32;;;;;;;20.88;13.03;;;;;;;17.46;80.37;96587.61;1724915;82;25794;-83
2021/08/16 04:54:59;;;;;;;25.20;14.50;;;;;;;17.49;80.50;96591.16;1733029;81;25695;-83
2021/08/16 04:57:38;;;;;;;16.25;12.60;;;;;;;17.54;80.53;96601.23;1704187;83;25688;-83
2021/08/16 05:00:11;;;;;;;15.28;12.45;;;;;;;17.59;80.57;96608.87;1723733;80;25812;-83
2021/08/16 05:02:38;;;;;;;15.08;12.47;;;;;;;17.67;80.59;96608.06;1729818;82;27499;-83
2021/08/16 05:05:09;;;;;;;16.15;13.30;;;;;;;17.75;80.64;96604.80;1735985;81;25770;-83
2021/08/16 05:07:35;;;;;;;19.85;15.63;;;;;;;17.82;80.79;96604.77;1722300;81;26266;-83
2021/08/16 05:10:03;;;;;;;20.43;16.23;;;;;;;17.89;80.80;96597.09;1733982;81;26383;-83
2021/08/16 05:12:29;;;;;;;24.60;16.17;;;;;;;17.96;80.76;96609.92;1723003;81;25675;-83
2021/08/16 05:14:56;;;;;;;21.50;15.53;;;;;;;18.03;80.69;96608.25;1732608;81;27405;-83
2021/08/16 05:17:22;;;;;;;19.87;15.55;;;;;;;18.09;80.63;96607.70;1747524;81;25741;-83
2021/08/16 05:19:49;;;;;;;22.30;16.42;;;;;;;18.15;80.55;96614.22;1738162;82;25255;-83
2021/08/16 05:22:16;;;;;;;21.45;16.00;;;;;;;18.21;80.56;96614.48;1736231;82;26415;-84
2021/08/16 05:24:42;;;;;;;22.25;15.72;;;;;;;18.28;80.59;96616.91;1736010;82;26248;-84
2021/08/16 05:27:09;;;;;;;21.73;14.80;;;;;;;18.34;80.62;96619.90;1729959;81;28458;-84
2021/08/16 05:29:36;;;;;;;20.77;14.18;;;;;;;18.42;80.66;96613.03;1738198;82;25765;-85
2021/08/16 05:32:02;;;;;;;18.70;14.35;;;;;;;18.46;80.67;96608.09;1730260;82;25773;-84
2021/08/16 05:34:29;;;;;;;17.02;13.60;;;;;;;18.52;80.70;96613.80;1730324;82;26447;-84
2021/08/16 05:36:57;;;;;;;17.60;13.30;;;;;;;18.59;80.60;96616.27;1738374;82;26286;-84
2021/08/16 05:39:23;;;;;;;15.58;13.43;;;;;;;18.67;80.56;96607.47;1738811;81;27463;-84
2021/08/16 05:41:50;;;;;;;16.07;13.25;;;;;;;18.77;80.61;96608.77;1741033;81;25894;-83
2021/08/16 05:44:16;;;;;;;17.30;13.55;;;;;;;18.87;80.82;96607.33;1741142;81;25841;-83
2021/08/16 05:46:43;;;;;;;17.42;12.90;;;;;;;18.96;80.91;96617.11;1734730;80;25741;-84
2021/08/16 05:49:09;;;;;;;17.45;13.85;;;;;;;19.04;80.94;96617.34;1731206;82;25733;-84
2021/08/16 05:51:36;;;;;;;14.58;12.95;;;;;;;19.15;80.98;96615.91;1735825;82;27453;-84
2021/08/16 05:54:03;;;;;;;19.10;14.07;;;;;;;19.26;81.04;96617.45;1733289;82;25891;-84
2021/08/16 05:56:31;;;;;;;19.77;13.22;;;;;;;19.36;81.03;96625.58;1735779;82;25781;-84
2021/08/16 05:58:57;;;;;;;18.48;14.95;;;;;;;19.48;80.94;96615.63;1734823;82;25788;-84
2021/08/16 06:01:24;;;;;;;18.62;14.45;;;;;;;19.57;80.88;96625.69;1735886;82;25843;-84
2021/08/16 06:03:51;;;;;;;18.05;13.65;;;;;;;19.70;80.88;96630.50;1734360;82;27363;-84
2021/08/16 06:06:17;;;;;;;19.85;12.53;;;;;;;19.81;80.71;96636.70;1729204;82;25800;-84
2021/08/16 06:08:44;;;;;;;17.07;11.75;;;;;;;19.94;80.64;96633.83;1727742;82;25730;-84
2021/08/16 06:11:11;;;;;;;14.18;11.25;;;;;;;20.05;80.39;96638.09;1714917;83;26105;-84
2021/08/16 06:13:37;;;;;;;13.62;10.13;;;;;;;20.18;80.21;96636.04;1689160;83;25823;-84
2021/08/16 06:16:04;;;;;;;17.55;10.88;;;;;;;20.28;79.63;96634.58;1719516;83;28095;-85
2021/08/16 06:18:31;;;;;;;14.85;11.00;;;;;;;20.41;79.38;96625.66;1716634;83;26394;-84
2021/08/16 06:20:57;;;;;;;15.78;12.15;;;;;;;20.54;78.95;96619.20;1706167;83;25744;-85
2021/08/16 06:23:24;;;;;;;13.43;10.43;;;;;;;20.63;78.63;96622.94;1720308;81;25757;-85
2021/08/16 06:25:51;;;;;;;15.43;10.43;;;;;;;20.71;78.15;96631.87;1720341;83;25799;-84
2021/08/16 06:28:17;;;;;;;11.57;9.98;;;;;;;20.77;77.94;96629.34;1720629;83;27361;-84
2021/08/16 06:30:44;;;;;;;11.80;10.50;;;;;;;20.82;77.94;96633.36;1719923;83;25772;-84
2021/08/16 06:33:10;;;;;;;11.25;9.95;;;;;;;20.88;78.02;96644.54;1720361;83;25693;-84
2021/08/16 06:35:37;;;;;;;15.05;10.88;;;;;;;20.95;78.12;96650.47;1720239;83;25755;-85
2021/08/16 06:38:09;;;;;;;11.75;10.38;;;;;;;21.01;78.20;96648.48;1706350;83;25698;-84
2021/08/16 06:40:32;;;;;;;10.28;9.25;;;;;;;21.05;78.01;96648.94;1689378;84;27418;-86
2021/08/16 06:43:00;;;;;;;16.50;10.72;;;;;;;21.12;77.75;96642.55;1720360;81;25923;-84
2021/08/16 06:45:26;;;;;;;10.15;9.05;;;;;;;21.18;77.44;96652.35;1719696;83;25773;-84
2021/08/16 06:47:53;;;;;;;11.90;9.90;;;;;;;21.27;77.18;96651.67;1719648;83;25732;-85
2021/08/16 06:50:19;;;;;;;13.75;9.18;;;;;;;21.39;77.06;96656.14;1712784;83;25727;-84
2021/08/16 06:52:46;;;;;;;13.43;8.90;;;;;;;21.50;76.72;96658.98;1707897;82;28208;-85
2021/08/16 06:55:13;;;;;;;10.55;9.45;;;;;;;21.59;76.10;96650.34;1700639;83;25870;-85
2021/08/16 06:57:39;;;;;;;15.10;9.78;;;;;;;21.68;75.73;96653.22;1713295;83;25256;-84
2021/08/16 07:00:07;;;;;;;10.63;9.53;;;;;;;21.74;75.50;96658.87;1690076;83;26465;-88
2021/08/16 07:02:34;;;;;;;14.00;9.58;;;;;;;21.79;75.38;96651.37;1720115;81;25709;-86
2021/08/16 07:05:00;;;;;;;13.00;9.40;;;;;;;21.90;74.89;96637.70;1717849;83;27442;-84
2021/08/16 07:07:27;;;;;;;17.27;9.33;;;;;;;21.90;74.89;96637.70;1737984;81;25762;-85
2021/08/16 07:09:54;;;;;;;15.78;9.70;;;;;;;22.11;74.49;96654.66;1738081;81;25259;-84
2021/08/16 07:12:20;;;;;;;10.70;9.60;;;;;;;22.20;74.35;96644.62;1746366;81;25825;-84
2021/08/16 07:14:47;;;;;;;12.23;9.20;;;;;;;22.33;74.59;96642.19;1734520;80;26180;-85
2021/08/16 07:17:14;;;;;;;13.25;9.63;;;;;;;22.51;73.69;96648.95;1748438;81;27581;-84
2021/08/16 07:19:41;;;;;;;11.68;8.80;;;;;;;22.51;73.69;96648.95;1722502;83;25727;-85
2021/08/16 07:22:07;;;;;;;9.80;8.80;;;;;;;22.60;73.30;96640.22;1721122;82;25789;-84
2021/08/16 07:24:34;;;;;;;12.55;9.70;;;;;;;22.70;73.24;96638.41;1735362;81;25787;-85
2021/08/16 07:27:00;;;;;;;10.13;8.43;;;;;;;22.77;72.93;96627.81;1729724;81;25786;-85
2021/08/16 07:29:29;;;;;;;13.45;9.13;;;;;;;22.95;72.24;96615.84;1734966;82;28194;-85
2021/08/16 07:31:56;;;;;;;14.40;8.75;;;;;;;22.95;72.24;96615.84;1730888;81;25269;-85
2021/08/16 07:34:22;;;;;;;14.60;9.30;;;;;;;23.22;71.72;96630.91;1734771;82;25765;-85
2021/08/16 07:36:50;;;;;;;14.50;9.23;;;;;;;23.35;71.48;96634.18;1733079;81;25825;-83
2021/08/16 07:39:17;;;;;;;12.45;8.80;;;;;;;23.51;71.04;96641.55;1729114;82;25780;-84
2021/08/16 07:41:44;;;;;;;11.00;8.68;;;;;;;23.66;70.64;96639.81;1737538;82;28177;-83
2021/08/16 07:44:10;;;;;;;13.88;7.95;;;;;;;23.84;70.29;96637.96;1729603;81;25989;-84
2021/08/16 07:46:37;;;;;;;9.45;7.67;;;;;;;24.10;69.88;96641.44;1737232;82;25793;-84
2021/08/16 07:49:03;;;;;;;9.80;8.00;;;;;;;24.44;69.13;96640.80;1731685;81;25961;-84
2021/08/16 07:51:30;;;;;;;13.18;8.33;;;;;;;24.85;68.84;96630.80;1738875;80;25749;-87
2021/08/16 07:53:57;;;;;;;11.08;7.97;;;;;;;25.34;68.37;96630.40;1736275;80;27439;-85
2021/08/16 07:56:23;;;;;;;10.32;7.45;;;;;;;25.83;67.39;96639.33;1741853;80;25775;-82
2021/08/16 07:58:50;;;;;;;12.68;7.28;;;;;;;26.25;66.71;96637.58;1741884;81;25792;-84
2021/08/16 08:01:17;;;;;;;10.05;6.78;;;;;;;26.65;65.86;96638.67;1754773;80;25832;-85
2021/08/16 08:03:45;;;;;;;10.18;6.62;;;;;;;26.89;64.87;96638.88;1730989;80;43940;-84
2021/08/16 08:06:11;;;;;;;9.60;6.55;;;;;;;26.97;64.05;96634.45;1743840;81;27432;-84
2021/08/16 08:08:38;;;;;;;9.23;6.85;;;;;;;27.00;63.18;96644.29;1740721;80;25797;-86
2021/08/16 08:11:05;;;;;;;8.80;7.15;;;;;;;26.99;62.85;96636.31;1743732;80;25865;-85
2021/08/16 08:13:31;;;;;;;8.20;6.17;;;;;;;26.98;62.41;96645.77;1741469;82;26486;-84
2021/08/16 08:15:58;;;;;;;11.78;6.58;;;;;;;26.95;61.71;96654.73;1710040;82;25510;-84
2021/08/16 08:18:25;;;;;;;8.30;6.15;;;;;;;26.87;61.29;96658.58;1705378;82;27501;-84
2021/08/16 08:20:52;;;;;;;9.28;6.72;;;;;;;26.85;61.10;96652.56;1707161;82;25914;-85
2021/08/16 08:23:19;;;;;;;9.00;6.12;;;;;;;26.83;60.95;96660.39;1694970;83;25293;-81
2021/08/16 08:25:45;;;;;;;7.75;6.10;;;;;;;26.76;60.72;96668.42;1736836;82;25694;-83
2021/08/16 08:28:14;;;;;;;11.15;6.50;;;;;;;26.76;60.13;96657.91;1715662;83;25726;-84
2021/08/16 08:30:41;;;;;;;7.67;6.17;;;;;;;26.85;59.95;96660.88;1715145;83;27375;-85
2021/08/16 08:33:07;;;;;;;9.65;6.30;;;;;;;26.86;59.60;96662.50;1702300;83;25687;-84
2021/08/16 08:35:34;;;;;;;10.75;6.33;;;;;;;26.89;59.21;96669.33;1716576;83;25774;-85
2021/08/16 08:38:00;;;;;;;11.30;5.90;;;;;;;27.12;59.03;96660.99;1730431;82;25725;-85
2021/08/16 08:40:27;;;;;;;8.83;6.20;;;;;;;27.43;58.49;96664.75;1746272;82;25819;-89
2021/08/16 08:42:54;;;;;;;8.10;5.60;;;;;;;27.80;58.10;96660.80;1746046;82;27525;-83
2021/08/16 08:45:25;;;;;;;8.63;5.60;;;;;;;28.19;57.50;96668.61;1746322;82;26282;-83
2021/08/16 08:47:53;;;;;;;10.15;6.45;;;;;;;28.56;56.75;96661.16;1746107;81;25735;-83
2021/08/16 08:50:20;;;;;;;7.92;5.90;;;;;;;28.91;56.51;96660.17;1745275;82;25887;-85
2021/08/16 08:52:50;;;;;;;10.00;6.22;;;;;;;29.25;56.14;96659.43;1745064;82;25682;-83
2021/08/16 08:55:16;;;;;;;8.43;6.12;;;;;;;29.54;55.66;96652.80;1745245;81;27960;-85
2021/08/16 08:57:43;;;;;;;11.70;5.83;;;;;;;29.81;55.09;96647.85;1745224;82;25747;-88
2021/08/16 09:00:16;;;;;;;8.95;5.70;;;;;;;30.05;54.31;96644.18;1745216;81;25818;-87
2021/08/16 09:02:39;;;;;;;7.85;5.40;;;;;;;30.23;53.65;96648.82;1726607;81;26329;-86
2021/08/16 09:05:07;;;;;;;7.75;5.90;;;;;;;30.42;52.68;96640.60;1713390;83;25343;-87
2021/08/16 09:07:36;;;;;;;7.40;5.58;;;;;;;30.66;52.50;96641.05;1716946;83;27451;-85
2021/08/16 09:10:07;;;;;;;10.53;6.20;;;;;;;30.89;51.97;96643.41;1718829;82;25781;-85
2021/08/16 09:12:36;;;;;;;9.93;5.67;;;;;;;31.11;51.35;96646.95;1748629;81;25734;-84
2021/08/16 09:15:11;;;;;;;7.65;5.28;;;;;;;31.29;51.18;96645.13;1715585;83;26512;-85
2021/08/16 09:17:37;;;;;;;6.37;5.10;;;;;;;31.43;50.60;96642.09;1702250;83;25316;-88
2021/08/16 09:20:15;;;;;;;6.10;4.85;;;;;;;31.56;50.11;96634.98;1751023;81;27435;-83
2021/08/16 09:22:42;;;;;;;8.00;4.58;;;;;;;31.66;49.41;96642.20;1744571;81;25852;-85
2021/08/16 09:25:11;;;;;;;6.72;4.45;;;;;;;31.77;48.62;96633.47;1747329;81;25751;-83
2021/08/16 09:27:47;;;;;;;5.97;4.70;;;;;;;31.87;47.92;96639.07;1715236;83;25760;-85
2021/08/16 09:30:15;;;;;;;7.05;4.70;;;;;;;31.89;47.53;96635.89;1720162;83;26330;-84
2021/08/16 09:32:43;;;;;;;9.93;4.50;;;;;;;31.93;47.19;96632.59;1726288;82;28277;-84
2021/08/16 09:35:15;;;;;;;8.53;4.75;;;;;;;32.01;46.96;96628.75;1727303;82;25682;-85
2021/08/16 09:37:42;;;;;;;8.13;5.05;;;;;;;32.15;47.08;96631.82;1741062;81;26241;-85
2021/08/16 09:40:14;;;;;;;4.78;4.33;;;;;;;32.27;46.67;96631.68;1721090;81;25771;-85
2021/08/16 09:42:53;;;;;;;7.85;4.45;;;;;;;32.31;46.14;96629.77;1742191;80;25713;-86
2021/08/16 09:45:37;;;;;;;8.05;4.65;;;;;;;32.30;45.85;96626.76;1721227;81;27356;-86
2021/08/16 09:48:07;;;;;;;7.83;4.65;;;;;;;32.26;45.45;96630.06;1721144;81;25746;-89
2021/08/16 09:50:46;;;;;;;6.42;4.65;;;;;;;32.29;45.24;96615.37;1744245;81;26396;-82
2021/08/16 09:53:17;;;;;;;6.53;4.65;;;;;;;32.39;45.22;96620.34;1750671;81;25741;-84
2021/08/16 09:55:48;;;;;;;6.63;4.63;;;;;;;32.40;44.75;96613.57;1726768;81;25763;-85
2021/08/16 09:58:17;;;;;;;9.08;4.42;;;;;;;32.39;44.03;96606.95;1721146;81;27359;-84
2021/08/16 10:00:50;;;;;;;8.55;4.75;;;;;;;32.42;44.40;96605.63;1720960;81;26307;-84
2021/08/16 10:03:17;;;;;;;6.20;4.28;;;;;;;32.53;44.30;96609.41;1747443;81;25778;-88
2021/08/16 10:05:47;;;;;;;10.93;3.75;;;;;;;32.61;43.62;96599.16;1734874;81;26596;-84
2021/08/16 10:08:21;;;;;;;5.72;4.28;;;;;;;32.72;43.17;96606.38;1721205;81;25706;-84
2021/08/16 10:10:48;;;;;;;6.90;4.30;;;;;;;32.72;42.58;96598.80;1721188;81;27441;-90
2021/08/16 10:13:16;;;;;;;6.80;4.17;;;;;;;32.74;42.57;96599.80;1720860;81;25276;-86
2021/08/16 10:15:46;;;;;;;5.28;3.60;;;;;;;32.79;42.41;96595.30;1721212;81;25894;-84
2021/08/16 10:18:23;;;;;;;4.60;3.95;;;;;;;32.77;42.13;96592.07;1721298;81;25766;-83
2021/08/16 10:20:50;;;;;;;7.08;4.55;;;;;;;32.79;42.13;96593.91;1721351;81;26466;-84
2021/08/16 10:23:25;;;;;;;9.08;4.25;;;;;;;32.72;41.58;96585.42;1721217;81;27877;-85
2021/08/16 10:25:55;;;;;;;5.70;4.17;;;;;;;32.77;41.98;96590.67;1721174;81;25814;-85
2021/08/16 10:28:28;;;;;;;5.95;4.03;;;;;;;32.80;41.49;96580.15;1720808;81;25805;-90
2021/08/16 10:30:57;;;;;;;6.85;4.20;;;;;;;32.85;41.66;96584.81;1721262;81;26695;-85
2021/08/16 10:33:25;;;;;;;7.75;4.35;;;;;;;32.74;41.30;96577.44;1721135;81;25785;-88
2021/08/16 10:35:54;;;;;;;7.72;4.80;;;;;;;32.70;41.35;96576.56;1721043;81;27630;-85
2021/08/16 10:38:21;;;;;;;8.28;4.58;;;;;;;32.71;41.47;96578.19;1721120;81;25861;-87
2021/08/16 10:41:03;;;;;;;7.85;4.25;;;;;;;32.68;41.38;96574.73;1742335;81;25813;-83
2021/08/16 10:43:35;;;;;;;6.35;4.28;;;;;;;32.58;41.40;96582.36;1720512;81;25728;-84
2021/08/16 10:46:01;;;;;;;6.80;4.20;;;;;;;32.35;40.58;96577.59;1721154;81;26193;-83
2021/08/16 10:48:35;;;;;;;5.08;3.92;;;;;;;32.13;40.65;96582.52;1721120;81;28311;-82
2021/08/16 10:51:08;;;;;;;4.60;3.80;;;;;;;31.98;40.72;96580.67;1720968;81;25787;-84
2021/08/16 10:53:50;;;;;;;5.72;4.25;;;;;;;31.80;40.61;96569.96;1721050;81;25779;-84
2021/08/16 10:56:19;;;;;;;8.15;4.33;;;;;;;31.65;40.82;96569.45;1719912;81;26352;-85
2021/08/16 10:58:47;;;;;;;7.97;4.20;;;;;;;31.57;41.23;96572.44;1721246;81;26002;-84
2021/08/16 11:01:30;;;;;;;7.62;3.75;;;;;;;31.56;41.04;96570.24;1721202;81;27421;-86
2021/08/16 11:04:02;;;;;;;7.58;4.30;;;;;;;31.57;40.91;96562.09;1737253;81;25693;-85
2021/08/16 11:06:28;;;;;;;;;;;;;;;31.57;40.62;96574.65;1711097;81;25929;-85
2021/08/16 11:09:02;;;;;;;6.03;3.75;;;;;;;31.58;40.30;96573.48;1704590;82;25714;-85
2021/08/16 11:11:32;;;;;;;6.05;4.08;;;;;;;31.50;41.17;96567.54;1690823;83;25813;-88
2021/08/16 11:14:10;;;;;;;5.55;4.47;;;;;;;31.50;41.30;96573.13;1704732;82;28158;-86
2021/08/16 11:16:50;;;;;;;6.15;4.20;;;;;;;31.56;41.09;96576.41;1690616;83;25714;-87
2021/08/16 11:19:18;;;;;;;7.20;3.67;;;;;;;31.64;40.85;96569.84;1704481;82;25694;-86
2021/08/16 11:22:00;;;;;;;8.45;3.83;;;;;;;31.65;41.07;96569.45;1690663;83;26478;-86
2021/08/16 11:24:39;;;;;;;6.37;4.25;;;;;;;31.67;40.43;96562.92;1704545;82;25724;-85